createdAt,value
2018-07-10T00:01:22.461Z,100858.09
2018-07-10T00:04:15.412Z,100858.69
2018-07-10T00:07:51.453Z,100858.33
2018-07-10T00:10:34.274Z,100851.77
2018-07-10T00:13:02.272Z,100848.09
2018-07-10T00:15:30.266Z,100840.30
2018-07-10T00:17:58.269Z,100842.03
2018-07-10T00:20:27.308Z,100840.36
2018-07-10T00:22:55.481Z,100824.89
2018-07-10T00:25:23.492Z,100821.24
2018-07-10T00:27:51.513Z,100812.56
2018-07-10T00:30:19.507Z,100804.23
2018-07-10T00:32:47.517Z,100807.98
2018-07-10T00:35:15.561Z,100808.48
2018-07-10T00:37:53.713Z,100815.23
2018-07-10T00:40:21.723Z,100810.30
2018-07-10T00:42:49.718Z,100813.19
2018-07-10T00:45:18.190Z,100812.69
2018-07-10T00:47:47.069Z,100812.22
2018-07-10T00:50:15.107Z,100805.30
2018-07-10T00:52:43.115Z,100803.37
2018-07-10T00:55:11.105Z,100795.38
2018-07-10T00:57:39.309Z,100802.27
2018-07-10T01:00:07.292Z,100796.59
2018-07-10T01:02:35.332Z,100789.21
2018-07-10T01:05:03.348Z,100792.60
2018-07-10T01:07:31.332Z,100797.55
2018-07-10T01:09:59.344Z,100798.88
2018-07-10T01:12:27.333Z,100791.52
2018-07-10T01:14:55.436Z,100796.23
2018-07-10T01:17:23.504Z,100792.25
2018-07-10T01:19:51.504Z,100791.88
2018-07-10T01:22:19.489Z,100784.36
2018-07-10T01:24:47.615Z,100784.14
2018-07-10T01:27:15.589Z,100778.70
2018-07-10T01:29:48.577Z,100780.98
2018-07-10T01:32:16.780Z,100776.75
2018-07-10T01:34:44.789Z,100769.52
2018-07-10T01:37:12.783Z,100768.43
2018-07-10T01:39:40.768Z,100767.58
2018-07-10T01:42:08.765Z,100772.55
2018-07-10T01:44:36.769Z,100772.91
2018-07-10T01:47:04.751Z,100770.14
2018-07-10T01:49:32.750Z,100772.53
2018-07-10T01:52:00.761Z,100767.80
2018-07-10T01:54:28.751Z,100762.98
2018-07-10T01:56:56.744Z,100755.86
2018-07-10T01:59:24.753Z,100756.59
2018-07-10T02:01:52.736Z,100753.77
2018-07-10T02:04:20.760Z,100741.34
2018-07-10T02:06:48.753Z,100742.43
2018-07-10T02:09:16.752Z,100743.27
2018-07-10T02:11:44.810Z,100742.55
2018-07-10T02:14:12.808Z,100743.70
2018-07-10T02:16:40.793Z,100742.23
2018-07-10T02:19:08.795Z,100741.29
2018-07-10T02:21:36.796Z,100734.26
2018-07-10T02:24:04.760Z,100736.70
2018-07-10T02:26:32.744Z,100727.30
2018-07-10T02:29:00.712Z,100717.98
2018-07-10T02:31:28.742Z,100711.91
2018-07-10T02:33:56.715Z,100709.84
2018-07-10T02:36:25.104Z,100702.98
2018-07-10T02:38:56.832Z,100706.34
2018-07-10T02:41:25.139Z,100696.30
2018-07-10T02:43:55.789Z,100698.96
2018-07-10T02:46:24.554Z,100698.58
2018-07-10T02:48:53.341Z,100691.20
2018-07-10T02:51:21.309Z,100687.25
2018-07-10T02:53:49.305Z,100683.02
2018-07-10T02:56:18.776Z,100684.59
2018-07-10T02:58:46.804Z,100686.38
2018-07-10T03:01:14.786Z,100679.88
2018-07-10T03:03:44.540Z,100681.01
2018-07-10T03:06:12.718Z,100674.11
2018-07-10T03:08:41.199Z,100678.40
2018-07-10T03:11:09.472Z,100668.95
2018-07-10T03:13:38.364Z,100661.47
2018-07-10T03:16:06.364Z,100663.30
2018-07-10T03:18:34.349Z,100665.11
2018-07-10T03:21:02.341Z,100664.97
2018-07-10T03:23:30.348Z,100668.60
2018-07-10T03:25:58.344Z,100665.84
2018-07-10T03:28:26.344Z,100661.23
2018-07-10T03:30:54.340Z,100658.02
2018-07-10T03:33:22.361Z,100656.79
2018-07-10T03:35:50.400Z,100652.07
2018-07-10T03:38:18.413Z,100643.74
2018-07-10T03:40:46.420Z,100630.67
2018-07-10T03:43:14.456Z,100640.21
2018-07-10T03:45:42.428Z,100628.61
2018-07-10T03:48:10.408Z,100623.33
2018-07-10T03:50:38.397Z,100615.67
2018-07-10T03:53:06.422Z,100614.59
2018-07-10T03:55:36.872Z,100613.02
2018-07-10T03:58:04.866Z,100609.20
2018-07-10T04:00:34.526Z,100611.69
2018-07-10T04:03:02.513Z,100605.89
2018-07-10T04:05:30.540Z,100612.17
2018-07-10T04:07:58.705Z,100611.55
2018-07-10T04:10:36.997Z,100606.27
2018-07-10T04:13:11.980Z,100609.73
2018-07-10T04:15:40.014Z,100605.78
2018-07-10T04:18:11.549Z,100606.76
2018-07-10T04:20:51.069Z,100596.52
2018-07-10T04:23:19.057Z,100599.73
2018-07-10T04:25:51.739Z,100598.41
2018-07-10T04:28:31.777Z,100591.91
2018-07-10T04:31:06.708Z,100597.22
2018-07-10T04:33:34.704Z,100590.09
2018-07-10T04:36:03.176Z,100598.55
2018-07-10T04:38:31.567Z,100595.27
2018-07-10T04:41:08.942Z,100594.56
2018-07-10T04:43:40.059Z,100588.63
2018-07-10T04:46:08.098Z,100584.39
2018-07-10T04:48:39.955Z,100579.67
2018-07-10T04:51:11.440Z,100586.45
2018-07-10T04:53:45.048Z,100581.62
2018-07-10T04:56:14.172Z,100577.65
2018-07-10T04:58:44.980Z,100579.33
2018-07-10T05:01:14.185Z,100574.02
2018-07-10T05:03:42.405Z,100573.66
2018-07-10T05:06:10.405Z,100570.52
2018-07-10T05:08:38.381Z,100562.41
2018-07-10T05:11:06.381Z,100567.62
2018-07-10T05:13:34.834Z,100560.98
2018-07-10T05:16:04.576Z,100552.28
2018-07-10T05:18:33.320Z,100546.86
2018-07-10T05:21:05.656Z,100545.17
2018-07-10T05:23:33.625Z,100543.72
2018-07-10T05:26:01.608Z,100531.75
2018-07-10T05:28:29.573Z,100528.16
2018-07-10T05:31:01.216Z,100526.34
2018-07-10T05:33:29.216Z,100516.78
2018-07-10T05:35:57.410Z,100522.11
2018-07-10T05:38:34.293Z,100518.50
2018-07-10T05:41:02.296Z,100522.34
2018-07-10T05:43:30.782Z,100532.25
2018-07-10T05:45:58.800Z,100522.23
2018-07-10T05:48:27.203Z,100521.16
2018-07-10T05:50:55.190Z,100516.53
2018-07-10T05:53:23.193Z,100512.69
2018-07-10T05:55:51.409Z,100517.64
2018-07-10T05:58:19.419Z,100519.55
2018-07-10T06:00:47.389Z,100516.20
2018-07-10T06:03:15.360Z,100509.30
2018-07-10T06:05:43.345Z,100511.72
2018-07-10T06:08:12.976Z,100509.31
2018-07-10T06:10:41.357Z,100514.95
2018-07-10T06:13:09.336Z,100515.06
2018-07-10T06:15:37.321Z,100513.88
2018-07-10T06:18:05.342Z,100513.26
2018-07-10T06:20:33.478Z,100517.73
2018-07-10T06:23:01.449Z,100516.77
2018-07-10T06:25:34.013Z,100519.56
2018-07-10T06:28:09.375Z,100505.27
2018-07-10T06:30:38.244Z,100503.48
2018-07-10T06:33:12.603Z,100500.45
2018-07-10T06:35:46.187Z,100504.69
2018-07-10T06:38:16.077Z,100509.62
2018-07-10T06:40:47.428Z,100504.90
2018-07-10T06:43:24.460Z,100506.22
2018-07-10T06:45:52.584Z,100514.55
2018-07-10T06:48:21.984Z,100512.38
2018-07-10T06:50:50.185Z,100505.28
2018-07-10T06:53:20.841Z,100510.25
2018-07-10T06:55:51.892Z,100505.82
2018-07-10T06:58:22.029Z,100503.54
2018-07-10T07:00:50.014Z,100507.84
2018-07-10T07:03:18.000Z,100509.44
2018-07-10T07:05:45.973Z,100513.45
2018-07-10T07:08:14.000Z,100506.92
2018-07-10T07:10:41.995Z,100515.33
2018-07-10T07:13:10.032Z,100513.77
2018-07-10T07:15:38.021Z,100522.78
2018-07-10T07:18:06.006Z,100516.23
2018-07-10T07:20:34.005Z,100514.64
2018-07-10T07:23:01.994Z,100513.23
2018-07-10T07:25:29.969Z,100508.17
2018-07-10T07:27:57.984Z,100512.80
2018-07-10T07:30:26.032Z,100506.69
2018-07-10T07:32:54.124Z,100505.63
2018-07-10T07:35:22.108Z,100503.80
2018-07-10T07:37:50.096Z,100508.23
2018-07-10T07:40:18.110Z,100497.84
2018-07-10T07:42:46.124Z,100499.67
2018-07-10T07:45:14.118Z,100498.22
2018-07-10T07:47:42.097Z,100504.05
2018-07-10T07:50:10.076Z,100505.80
2018-07-10T07:52:38.095Z,100504.69
2018-07-10T07:55:06.058Z,100502.11
2018-07-10T07:57:34.236Z,100506.56
2018-07-10T08:00:02.269Z,100503.52
2018-07-10T08:02:30.258Z,100506.07
2018-07-10T08:04:58.280Z,100502.42
2018-07-10T08:07:26.705Z,100504.33
2018-07-10T08:09:56.216Z,100507.87
2018-07-10T08:12:25.592Z,100502.48
2018-07-10T08:14:53.911Z,100485.17
2018-07-10T08:17:22.200Z,100484.89
2018-07-10T08:19:50.192Z,100483.27
2018-07-10T08:22:18.186Z,100485.09
2018-07-10T08:24:46.174Z,100483.76
2018-07-10T08:27:14.791Z,100487.89
2018-07-10T08:29:42.800Z,100482.61
2018-07-10T08:32:10.796Z,100478.67
2018-07-10T08:34:38.784Z,100482.19
2018-07-10T08:37:06.780Z,100480.05
2018-07-10T08:39:34.767Z,100483.12
2018-07-10T08:42:05.745Z,100479.80
2018-07-10T08:44:33.840Z,100470.52
2018-07-10T08:47:01.825Z,100470.91
2018-07-10T08:49:36.003Z,100473.95
2018-07-10T08:52:05.380Z,100471.77
2018-07-10T08:54:33.377Z,100469.70
2018-07-10T08:57:02.173Z,100470.66
2018-07-10T08:59:30.734Z,100470.93
2018-07-10T09:01:58.712Z,100455.24
2018-07-10T09:04:26.715Z,100453.97
2018-07-10T09:06:54.705Z,100452.70
2018-07-10T09:09:22.709Z,100448.19
2018-07-10T09:11:50.804Z,100451.56
2018-07-10T09:14:18.810Z,100457.54
2018-07-10T09:16:47.052Z,100460.05
2018-07-10T09:19:16.377Z,100461.03
2018-07-10T09:21:49.307Z,100462.45
2018-07-10T09:24:17.328Z,100458.00
2018-07-10T09:26:45.457Z,100452.79
2018-07-10T09:29:13.456Z,100461.16
2018-07-10T09:31:41.921Z,100457.53
2018-07-10T09:34:09.977Z,100458.59
2018-07-10T09:36:37.952Z,100456.38
2018-07-10T09:39:05.982Z,100451.10
2018-07-10T09:41:34.104Z,100447.06
2018-07-10T09:44:02.345Z,100446.54
2018-07-10T09:46:30.928Z,100450.78
2018-07-10T09:48:59.527Z,100454.62
2018-07-10T09:51:27.633Z,100454.84
2018-07-10T09:53:55.664Z,100450.34
2018-07-10T09:56:23.741Z,100453.15
2018-07-10T09:58:53.905Z,100446.27
2018-07-10T10:01:26.901Z,100451.41
2018-07-10T10:03:55.581Z,100453.84
2018-07-10T10:06:24.250Z,100450.07
2018-07-10T10:08:52.228Z,100457.74
2018-07-10T10:11:20.197Z,100458.70
2018-07-10T10:13:48.177Z,100460.13
2018-07-10T10:16:16.173Z,100451.65
2018-07-10T10:18:44.225Z,100451.34
2018-07-10T10:21:12.240Z,100449.77
2018-07-10T10:23:40.844Z,100451.66
2018-07-10T10:26:08.994Z,100461.08
2018-07-10T10:28:36.977Z,100461.31
2018-07-10T10:31:04.966Z,100464.59
2018-07-10T10:33:32.944Z,100463.84
2018-07-10T10:36:00.954Z,100463.59
2018-07-10T10:38:29.144Z,100469.52
2018-07-10T10:40:59.070Z,100466.52
2018-07-10T10:43:27.761Z,100466.17
2018-07-10T10:45:55.730Z,100466.81
2018-07-10T10:48:23.692Z,100457.06
2018-07-10T10:50:52.172Z,100462.45
2018-07-10T10:53:20.683Z,100469.92
2018-07-10T10:55:48.765Z,100469.60
2018-07-10T10:58:17.107Z,100467.70
2018-07-10T11:00:45.082Z,100465.76
2018-07-10T11:03:13.741Z,100466.84
2018-07-10T11:05:44.029Z,100468.76
2018-07-10T11:08:12.015Z,100464.80
2018-07-10T11:10:40.044Z,100475.08
2018-07-10T11:13:08.110Z,100465.56
2018-07-10T11:15:41.904Z,100468.48
2018-07-10T11:18:12.000Z,100465.61
2018-07-10T11:20:47.772Z,100466.45
2018-07-10T11:23:32.427Z,100463.16
2018-07-10T11:26:07.260Z,100468.09
2018-07-10T11:28:35.248Z,100471.13
2018-07-10T11:31:03.250Z,100471.73
2018-07-10T11:33:31.252Z,100475.05
2018-07-10T11:35:59.244Z,100476.87
2018-07-10T11:38:27.279Z,100485.02
2018-07-10T11:40:55.276Z,100486.83
2018-07-10T11:43:23.329Z,100489.97
2018-07-10T11:45:51.381Z,100497.38
2018-07-10T11:48:19.297Z,100499.28
2018-07-10T11:50:47.305Z,100502.44
2018-07-10T11:53:15.284Z,100506.95
2018-07-10T11:55:43.270Z,100505.95
2018-07-10T11:58:11.906Z,100506.05
2018-07-10T12:00:39.908Z,100508.73
2018-07-10T12:03:08.156Z,100501.37
2018-07-10T12:05:38.069Z,100501.19
2018-07-10T12:08:06.528Z,100510.27
2018-07-10T12:10:35.592Z,100508.45
2018-07-10T12:13:03.580Z,100506.75
2018-07-10T12:15:32.076Z,100516.92
2018-07-10T12:18:00.736Z,100519.28
2018-07-10T12:20:34.187Z,100522.56
2018-07-10T12:23:03.350Z,100511.83
2018-07-10T12:25:37.329Z,100511.58
2018-07-10T12:28:06.334Z,100507.36
2018-07-10T12:30:34.371Z,100525.73
2018-07-10T12:33:02.441Z,100538.97
2018-07-10T12:35:30.440Z,100550.43
2018-07-10T12:37:58.436Z,100560.54
2018-07-10T12:40:26.439Z,100556.64
2018-07-10T12:42:54.424Z,100563.78
2018-07-10T12:45:22.428Z,100554.23
2018-07-10T12:47:50.508Z,100554.23
2018-07-10T12:50:18.606Z,100551.41
2018-07-10T12:52:46.618Z,100547.22
2018-07-10T12:55:15.025Z,100545.16
2018-07-10T12:57:44.151Z,100548.78
2018-07-10T13:00:13.037Z,100542.98
2018-07-10T13:02:42.613Z,100548.80
2018-07-10T13:05:12.621Z,100546.50
2018-07-10T13:07:40.749Z,100552.42
2018-07-10T13:10:08.858Z,100555.54
2018-07-10T13:12:36.960Z,100562.30
2018-07-10T13:15:04.937Z,100560.59
2018-07-10T13:17:32.921Z,100568.50
2018-07-10T13:20:02.080Z,100565.38
2018-07-10T13:22:30.085Z,100569.69
2018-07-10T13:24:58.215Z,100568.87
2018-07-10T13:27:26.204Z,100564.77
2018-07-10T13:29:54.197Z,100566.88
2018-07-10T13:32:22.226Z,100569.48
2018-07-10T13:34:50.322Z,100570.97
2018-07-10T13:37:20.196Z,100573.41
2018-07-10T13:39:48.171Z,100570.53
2018-07-10T13:42:16.152Z,100576.24
2018-07-10T13:44:44.131Z,100564.47
2018-07-10T13:47:12.317Z,100576.06
2018-07-10T13:49:40.457Z,100557.37
2018-07-10T13:52:08.462Z,100558.23
2018-07-10T13:54:36.427Z,100557.50
2018-07-10T13:57:04.436Z,100560.39
2018-07-10T13:59:32.395Z,100562.56
2018-07-10T14:02:00.365Z,100572.31
2018-07-10T14:04:28.354Z,100576.20
2018-07-10T14:06:56.321Z,100584.66
2018-07-10T14:09:24.316Z,100602.32
2018-07-10T14:11:52.296Z,100609.13
2018-07-10T14:14:20.283Z,100609.35
2018-07-10T14:16:48.260Z,100603.05
2018-07-10T14:19:16.245Z,100600.91
2018-07-10T14:21:44.225Z,100602.23
2018-07-10T14:24:12.192Z,100594.65
2018-07-10T14:26:40.169Z,100601.51
2018-07-10T14:29:08.157Z,100601.80
2018-07-10T14:31:36.136Z,100603.61
2018-07-10T14:34:04.129Z,100608.71
2018-07-10T14:36:32.106Z,100608.16
2018-07-10T14:39:00.125Z,100607.56
2018-07-10T14:41:28.948Z,100610.37
2018-07-10T14:43:57.265Z,100611.64
2018-07-10T14:46:25.706Z,100615.47
2018-07-10T14:49:00.748Z,100615.81
2018-07-10T14:51:33.564Z,100614.50
2018-07-10T14:54:01.552Z,100613.75
2018-07-10T14:56:29.528Z,100618.85
2018-07-10T14:58:57.673Z,100619.22
2018-07-10T15:01:25.708Z,100620.06
2018-07-10T15:03:53.719Z,100617.17
2018-07-10T15:06:21.695Z,100624.61
2018-07-10T15:08:49.701Z,100634.53
2018-07-10T15:11:17.685Z,100644.92
2018-07-10T15:13:57.288Z,100646.48
2018-07-10T15:16:25.994Z,100652.46
2018-07-10T15:18:53.982Z,100653.95
2018-07-10T15:21:23.284Z,100652.73
2018-07-10T15:23:51.343Z,100658.22
2018-07-10T15:26:19.344Z,100659.62
2018-07-10T15:28:47.345Z,100663.22
2018-07-10T15:31:15.316Z,100668.75
2018-07-10T15:33:43.296Z,100667.11
2018-07-10T15:36:11.289Z,100669.16
2018-07-10T15:38:39.273Z,100669.44
2018-07-10T15:41:07.242Z,100668.37
2018-07-10T15:43:35.293Z,100667.95
2018-07-10T15:46:03.269Z,100668.03
2018-07-10T15:48:31.821Z,100669.80
2018-07-10T15:50:59.803Z,100665.46
2018-07-10T15:53:28.252Z,100662.64
2018-07-10T15:55:56.244Z,100671.02
2018-07-10T15:58:24.233Z,100663.78
2018-07-10T16:00:52.208Z,100669.95
2018-07-10T16:03:20.172Z,100667.48
2018-07-10T16:05:48.252Z,100668.57
2018-07-10T16:08:17.672Z,100676.30
2018-07-10T16:10:54.345Z,100669.59
2018-07-10T16:13:23.079Z,100669.80
2018-07-10T16:15:54.872Z,100671.19
2018-07-10T16:18:24.401Z,100677.19
2018-07-10T16:20:56.176Z,100683.27
2018-07-10T16:23:24.161Z,100671.69
2018-07-10T16:25:55.286Z,100673.38
2018-07-10T16:28:26.452Z,100673.38
2018-07-10T16:30:54.798Z,100676.17
2018-07-10T16:33:29.395Z,100682.25
2018-07-10T16:35:57.411Z,100682.95
2018-07-10T16:38:25.380Z,100686.29
2018-07-10T16:40:57.589Z,100687.18
2018-07-10T16:43:28.495Z,100690.70
2018-07-10T16:45:57.121Z,100687.28
2018-07-10T16:48:48.677Z,100687.48
2018-07-10T16:51:23.872Z,100689.17
2018-07-10T16:53:55.648Z,100689.62
2018-07-10T16:56:23.687Z,100690.30
2018-07-10T16:58:51.688Z,100686.61
2018-07-10T17:01:19.674Z,100690.79
2018-07-10T17:03:47.661Z,100694.73
2018-07-10T17:06:15.661Z,100696.19
2018-07-10T17:08:43.649Z,100701.22
2018-07-10T17:11:11.670Z,100700.01
2018-07-10T17:13:39.636Z,100692.55
2018-07-10T17:16:07.628Z,100700.89
2018-07-10T17:18:35.604Z,100700.42
2018-07-10T17:21:03.602Z,100701.35
2018-07-10T17:23:31.601Z,100702.64
2018-07-10T17:25:59.832Z,100695.28
2018-07-10T17:28:27.864Z,100695.08
2018-07-10T17:30:55.888Z,100698.13
2018-07-10T17:33:23.889Z,100690.58
2018-07-10T17:35:51.893Z,100702.41
2018-07-10T17:38:19.878Z,100702.68
2018-07-10T17:40:47.865Z,100707.03
2018-07-10T17:43:17.329Z,100711.19
2018-07-10T17:45:46.004Z,100721.08
2018-07-10T17:48:14.089Z,100725.41
2018-07-10T17:50:42.078Z,100722.53
2018-07-10T17:53:10.149Z,100726.62
2018-07-10T17:55:38.129Z,100723.74
2018-07-10T17:58:06.737Z,100723.38
2018-07-10T18:00:35.496Z,100726.05
2018-07-10T18:03:03.488Z,100732.97
2018-07-10T18:05:31.641Z,100744.92
2018-07-10T18:07:59.625Z,100738.28
2018-07-10T18:10:27.613Z,100740.62
2018-07-10T18:12:55.776Z,100738.98
2018-07-10T18:15:23.773Z,100746.84
2018-07-10T18:17:52.408Z,100743.78
2018-07-10T18:20:20.584Z,100745.79
2018-07-10T18:22:48.904Z,100741.14
2018-07-10T18:25:16.841Z,100752.13
2018-07-10T18:27:44.816Z,100749.80
2018-07-10T18:30:12.811Z,100757.02
2018-07-10T18:32:40.833Z,100758.92
2018-07-10T18:35:08.752Z,100758.55
2018-07-10T18:37:36.737Z,100758.97
2018-07-10T18:40:04.719Z,100751.86
2018-07-10T18:42:32.820Z,100753.83
2018-07-10T18:45:00.904Z,100760.46
2018-07-10T18:47:28.888Z,100754.82
2018-07-10T18:49:57.140Z,100762.13
2018-07-10T18:52:27.569Z,100760.88
2018-07-10T18:54:57.354Z,100763.48
2018-07-10T18:57:53.201Z,100767.28
2018-07-10T19:00:26.359Z,100770.38
2018-07-10T19:02:59.586Z,100771.08
2018-07-10T19:05:27.574Z,100768.74
2018-07-10T19:10:47.401Z,100768.66
2018-07-10T19:13:16.249Z,100768.95
2018-07-10T19:15:45.789Z,100769.87
2018-07-10T19:18:13.993Z,100770.45
2018-07-10T19:20:46.613Z,100772.75
2018-07-10T19:23:51.096Z,100780.55
2018-07-10T19:26:23.768Z,100781.34
2018-07-10T19:28:51.901Z,100779.56
2018-07-10T19:31:24.590Z,100777.80
2018-07-10T19:33:54.877Z,100780.06
2018-07-10T19:36:23.165Z,100781.91
2018-07-10T19:38:52.376Z,100785.98
2018-07-10T19:41:21.148Z,100787.33
2018-07-10T19:43:49.325Z,100787.53
2018-07-10T19:46:17.293Z,100786.86
2018-07-10T19:48:49.364Z,100787.64
2018-07-10T19:51:17.684Z,100785.82
2018-07-10T19:53:51.946Z,100787.58
2018-07-10T19:56:20.412Z,100789.91
2018-07-10T19:58:48.409Z,100792.05
2018-07-10T20:01:53.871Z,100789.09
2018-07-10T20:04:29.993Z,100787.67
2018-07-10T20:07:11.294Z,100791.43
2018-07-10T20:09:47.915Z,100790.72
2018-07-10T20:12:17.461Z,100786.91
2018-07-10T20:14:53.723Z,100788.11
2018-07-10T20:17:23.409Z,100776.78
2018-07-10T20:19:56.809Z,100775.31
2018-07-10T20:22:31.766Z,100780.73
2018-07-10T20:25:11.301Z,100777.97
2018-07-10T20:27:56.553Z,100784.62
2018-07-10T20:30:34.605Z,100779.84
2018-07-10T20:33:10.171Z,100780.77
2018-07-10T20:35:38.140Z,100780.20
2018-07-10T20:38:06.125Z,100779.66
2018-07-10T20:40:37.348Z,100787.23
2018-07-10T20:43:09.270Z,100787.36
2018-07-10T20:45:41.865Z,100797.73
2018-07-10T20:48:17.844Z,100806.05
2018-07-10T20:50:53.988Z,100800.34
2018-07-10T20:53:29.641Z,100807.66
2018-07-10T20:56:00.989Z,100799.70
2018-07-10T20:58:34.369Z,100800.81
2018-07-10T21:01:04.100Z,100805.20
2018-07-10T21:03:57.856Z,100798.57
2018-07-10T21:06:37.272Z,100799.11
2018-07-10T21:09:11.909Z,100795.83
2018-07-10T21:12:16.821Z,100795.56
2018-07-10T21:14:50.548Z,100798.72
2018-07-10T21:17:18.890Z,100798.23
2018-07-10T21:20:58.865Z,100807.83
2018-07-10T21:23:36.217Z,100808.48
2018-07-10T21:26:06.724Z,100805.70
2018-07-10T21:28:40.224Z,100803.83
2018-07-10T21:31:18.505Z,100801.16
2018-07-10T21:33:52.564Z,100804.21
2018-07-10T21:36:26.033Z,100805.55
2018-07-10T21:39:05.312Z,100810.50
2018-07-10T21:41:44.900Z,100805.09
2018-07-10T21:46:28.417Z,100802.91
2018-07-10T21:49:06.477Z,100807.75
2018-07-10T21:51:34.490Z,100809.48
2018-07-10T21:54:02.466Z,100805.75
2018-07-10T21:56:30.484Z,100818.58
2018-07-10T21:58:58.424Z,100816.17
2018-07-10T22:01:41.279Z,100816.17
2018-07-10T22:04:10.229Z,100822.59
2018-07-10T22:06:39.070Z,100823.32
2018-07-10T22:09:07.225Z,100818.74
2018-07-10T22:11:35.726Z,100816.09
2018-07-10T22:14:03.885Z,100814.27
2018-07-10T22:16:31.893Z,100813.77
2018-07-10T22:19:00.571Z,100804.47
2018-07-10T22:21:28.832Z,100811.34
2018-07-10T22:23:57.096Z,100808.96
2018-07-10T22:26:25.484Z,100810.14
2018-07-10T22:28:53.478Z,100816.69
2018-07-10T22:31:26.934Z,100817.89
2018-07-10T22:33:55.009Z,100819.81
2018-07-10T22:36:22.985Z,100817.42
2018-07-10T22:38:51.380Z,100819.25
2018-07-10T22:41:21.060Z,100828.06
2018-07-10T22:43:49.534Z,100822.76
2018-07-10T22:46:17.685Z,100823.84
2018-07-10T22:48:46.197Z,100827.47
2018-07-10T22:51:14.161Z,100825.41
2018-07-10T22:53:43.556Z,100820.67
2018-07-10T22:56:11.574Z,100823.83
2018-07-10T22:58:39.580Z,100819.25
2018-07-10T23:01:07.566Z,100819.22
2018-07-10T23:03:35.624Z,100819.95
2018-07-10T23:06:03.621Z,100821.09
2018-07-10T23:08:33.072Z,100810.01
2018-07-10T23:11:02.728Z,100812.10
2018-07-10T23:13:30.872Z,100813.27
2018-07-10T23:15:58.849Z,100810.01
2018-07-10T23:18:27.661Z,100808.69
2018-07-10T23:20:55.750Z,100807.11
2018-07-10T23:23:24.152Z,100811.80
2018-07-10T23:25:52.157Z,100813.84
2018-07-10T23:28:20.817Z,100808.92
2018-07-10T23:30:48.793Z,100804.70
2018-07-10T23:33:17.756Z,100810.11
2018-07-10T23:35:48.613Z,100810.66
2018-07-10T23:38:22.401Z,100803.88
2018-07-10T23:40:50.400Z,100804.71
2018-07-10T23:43:19.368Z,100797.22
2018-07-10T23:45:48.076Z,100796.13
2018-07-10T23:48:16.066Z,100788.41
2018-07-10T23:50:44.101Z,100789.77
2018-07-10T23:54:15.747Z,100790.43
2018-07-10T23:56:43.732Z,100784.02
2018-07-10T23:59:11.753Z,100779.88
